TimeCDT,TemperatureF,Dew PointF,Humidity,Sea Level PressureIn,VisibilityMPH,Wind Direction,Wind SpeedMPH,Gust SpeedMPH,PrecipitationIn,Events,Conditions,WindDirDegrees,DateUTC
12:53 AM,51.1,42.1,71,29.84,7.0,West,6.9,-,N/A,,Scattered Clouds,270,2014-04-08 05:53:00
1:53 AM,50.0,42.1,74,29.83,6.0,West,6.9,-,N/A,,Haze,280,2014-04-08 06:53:00
2:53 AM,48.9,41.0,74,29.83,7.0,West,6.9,-,N/A,,Partly Cloudy,280,2014-04-08 07:53:00
3:53 AM,48.9,41.0,74,29.82,9.0,West,5.8,-,N/A,,Partly Cloudy,260,2014-04-08 08:53:00
4:53 AM,48.9,42.1,77,29.83,7.0,WNW,4.6,-,N/A,,Overcast,290,2014-04-08 09:53:00
5:53 AM,48.9,42.1,77,29.84,7.0,WNW,6.9,-,N/A,,Overcast,290,2014-04-08 10:53:00
6:53 AM,46.9,41.0,80,29.85,8.0,West,4.6,-,N/A,,Mostly Cloudy,270,2014-04-08 11:53:00
7:53 AM,48.0,39.9,74,29.88,9.0,NW,4.6,-,N/A,,Clear,310,2014-04-08 12:53:00
8:53 AM,50.0,41.0,71,29.89,10.0,WNW,8.1,-,N/A,,Mostly Cloudy,300,2014-04-08 13:53:00
9:53 AM,48.0,41.0,77,29.91,10.0,West,5.8,-,0.00,,Overcast,280,2014-04-08 14:53:00
10:53 AM,52.0,42.1,69,29.93,10.0,WNW,8.1,-,N/A,,Scattered Clouds,300,2014-04-08 15:53:00
11:53 AM,55.9,42.1,60,29.92,10.0,NW,10.4,18.4,0.00,Rain-Thunderstorm,Light Thunderstorms and Rain,320,2014-04-08 16:53:00
12:11 PM,53.6,39.2,58,29.92,10.0,NW,9.2,-,0.00,Rain,Light Rain,310,2014-04-08 17:11:00
12:53 PM,54.0,35.1,49,29.91,10.0,NW,24.2,36.8,0.00,,Mostly Cloudy,310,2014-04-08 17:53:00
1:53 PM,50.0,39.0,66,29.96,10.0,NW,9.2,-,0.01,Rain,Light Rain,320,2014-04-08 18:53:00
2:53 PM,55.9,37.9,51,29.94,10.0,NNW,9.2,-,0.00,,Overcast,330,2014-04-08 19:53:00
3:53 PM,55.0,30.0,38,29.94,10.0,NNW,13.8,32.2,N/A,,Clear,330,2014-04-08 20:53:00
4:53 PM,53.1,33.1,47,29.97,10.0,NNW,13.8,26.5,N/A,,Mostly Cloudy,340,2014-04-08 21:53:00
5:53 PM,57.0,30.9,37,29.97,10.0,NW,11.5,23.0,N/A,,Scattered Clouds,320,2014-04-08 22:53:00
6:53 PM,54.0,30.9,41,30.01,10.0,NW,9.2,-,N/A,,Partly Cloudy,320,2014-04-08 23:53:00
7:53 PM,52.0,28.9,41,30.04,10.0,NNW,8.1,-,N/A,,Scattered Clouds,330,2014-04-09 00:53:00
8:53 PM,48.9,28.9,46,30.06,10.0,NW,4.6,-,N/A,,Clear,320,2014-04-09 01:53:00
9:53 PM,46.9,30.0,52,30.09,10.0,NW,4.6,-,N/A,,Clear,310,2014-04-09 02:53:00
10:53 PM,46.0,30.0,54,30.11,10.0,West,4.6,-,N/A,,Clear,280,2014-04-09 03:53:00
11:53 PM,46.0,30.9,56,30.11,10.0,WNW,4.6,-,N/A,,Clear,300,2014-04-09 04:53:00